(°C)
10°
11°
12°
14°
14°
(°C)
10°
11°
10°
K
K
KKB
KKB
KB
KB
KB
(km/saat)
10-17
10-16
11-16
11-16
12-16
12-17
13-19
(mm)
0
0
0
0
0
0
0
(%)
0
0
0
0
0
0
0

Güneşin açısı

/ 15°
sun-icon
UV 4
07:19
18:03
Azalan ay (244°)
23:31
10:58

Tampa (KTPF) için METAR

Zaman Koşullar Sıcaklık/
Çiy noktası
Rüzgar Görünürlük Hava Bulutlar Basınç Değiştir Ham
IFR 8°C / 8°C 20º 4kt >10km - Broken Clouds 800ft
Overcast 1400ft
- KTPF 231315Z AUTO 02004KT 7SM BKN008 OVC014 08/08 A3018 RMK AO2
IFR 8°C / 8°C 360º 3kt >10km - Overcast 800ft - KTPF 231255Z AUTO 36003KT 7SM OVC008 08/08 A3018 RMK AO2
IFR 8°C / 8°C variable 0kt >10km - Broken Clouds 500ft
Overcast 1300ft
- KTPF 231235Z AUTO 00000KT 10SM BKN005 OVC013 08/08 A3018 RMK AO2
IFR 8°C / 8°C variable 0kt >10km - Overcast 500ft - KTPF 231215Z AUTO 00000KT 7SM OVC005 08/08 A3017 RMK AO2
IFR 8°C / 8°C 340º 3kt >10km - Overcast 500ft - KTPF 231155Z AUTO 34003KT 7SM OVC005 08/08 A3017 RMK AO2
IFR 8°C / 8°C 340º 4kt >10km - Overcast 500ft - KTPF 231135Z AUTO 34004KT 7SM OVC005 08/08 A3016 RMK AO2
IFR 8°C / 8°C 350º 4kt 8000m Mist Vertical Visibility of 0ft. - KTPF 231115Z AUTO 35004KT 5SM BR OVC005 08/08 A3016 RMK AO2
IFR 8°C / 8°C 350º 4kt 6400m Mist Vertical Visibility of 0ft. - KTPF 231055Z AUTO 35004KT 4SM BR OVC005 08/08 A3015 RMK AO2
IFR 8°C / 8°C 340º 3kt 4800m Mist Vertical Visibility of 0ft. - KTPF 231035Z AUTO 34003KT 3SM BR OVC005 08/08 A3015 RMK AO2
IFR 8°C / 8°C 340º 4kt 6400m Mist Vertical Visibility of 0ft. - KTPF 231015Z AUTO 34004KT 4SM BR OVC005 08/08 A3015 RMK AO2
IFR 8°C / 8°C 360º 3kt 6400m Mist Vertical Visibility of 0ft. - KTPF 230955Z AUTO 36003KT 4SM BR OVC005 08/08 A3016 RMK AO2
IFR 8°C / 8°C 330º 3kt 6400m Mist Vertical Visibility of 0ft. - KTPF 230935Z AUTO 33003KT 4SM BR OVC005 08/08 A3015 RMK AO2
IFR 8°C / 8°C 10º 3kt >10km - Overcast 500ft - KTPF 230915Z AUTO 01003KT 7SM OVC005 08/08 A3015 RMK AO2
IFR 8°C / 8°C 20º 4kt >10km - Overcast 500ft - KTPF 230855Z AUTO 02004KT 7SM OVC005 08/08 A3016 RMK AO2
IFR 8°C / 8°C 20º 3kt 8000m Mist Vertical Visibility of 0ft. - KTPF 230835Z AUTO 02003KT 5SM BR OVC007 08/08 A3016 RMK AO2
IFR 8°C / 8°C 30º 5kt >10km - Overcast 700ft - KTPF 230815Z AUTO 03005KT 10SM OVC007 08/08 A3016 RMK AO2
IFR 8°C / 8°C 10º 3kt >10km - Overcast 700ft - KTPF 230755Z AUTO 01003KT 10SM OVC007 08/08 A3017 RMK AO2
IFR 8°C / 8°C 340º 4kt >10km - Overcast 500ft - KTPF 230735Z AUTO 34004KT 7SM OVC005 08/08 A3017 RMK AO2
IFR 8°C / 8°C 40º 4kt >10km - Overcast 500ft - KTPF 230715Z AUTO 04004KT 10SM OVC005 08/08 A3017 RMK AO2
IFR 8°C / 8°C 20º 7kt >10km - Overcast 500ft - KTPF 230655Z AUTO 02007KT 10SM OVC005 08/08 A3017 RMK AO2
IFR 8°C / 8°C 20º 3kt >10km - Overcast 500ft - KTPF 230635Z AUTO 02003KT 7SM OVC005 08/08 A3018 RMK AO2
IFR 8°C / 8°C 40º 4kt >10km - Overcast 500ft - KTPF 230615Z AUTO 04004KT 7SM OVC005 08/08 A3018 RMK AO2
IFR 8°C / 8°C 20º 6kt >10km - Overcast 500ft - KTPF 230555Z AUTO 02006KT 7SM OVC005 08/08 A3019 RMK AO2
IFR 8°C / 8°C 50º 8kt >10km - Overcast 500ft - KTPF 230535Z AUTO 05008KT 7SM OVC005 08/08 A3019 RMK AO2

IFR

8°C / 8°C

[Daha fazla]
Rüzgar 20º 4kt
Görünürlük >10km
Hava -
Bulutlar Broken Clouds 800ft
Overcast 1400ft
Basınç
Değiştir -
Ham KTPF 231315Z AUTO 02004KT 7SM BKN008 OVC014 08/08 A3018 RMK AO2

IFR

8°C / 8°C

[Daha fazla]
Rüzgar 360º 3kt
Görünürlük >10km
Hava -
Bulutlar Overcast 800ft
Basınç
Değiştir -
Ham KTPF 231255Z AUTO 36003KT 7SM OVC008 08/08 A3018 RMK AO2

IFR

8°C / 8°C

[Daha fazla]
Rüzgar variable 0kt
Görünürlük >10km
Hava -
Bulutlar Broken Clouds 500ft
Overcast 1300ft
Basınç
Değiştir -
Ham KTPF 231235Z AUTO 00000KT 10SM BKN005 OVC013 08/08 A3018 RMK AO2

IFR

8°C / 8°C

[Daha fazla]
Rüzgar variable 0kt
Görünürlük >10km
Hava -
Bulutlar Overcast 500ft
Basınç
Değiştir -
Ham KTPF 231215Z AUTO 00000KT 7SM OVC005 08/08 A3017 RMK AO2

IFR

8°C / 8°C

[Daha fazla]
Rüzgar 340º 3kt
Görünürlük >10km
Hava -
Bulutlar Overcast 500ft
Basınç
Değiştir -
Ham KTPF 231155Z AUTO 34003KT 7SM OVC005 08/08 A3017 RMK AO2

IFR

8°C / 8°C

[Daha fazla]
Rüzgar 340º 4kt
Görünürlük >10km
Hava -
Bulutlar Overcast 500ft
Basınç
Değiştir -
Ham KTPF 231135Z AUTO 34004KT 7SM OVC005 08/08 A3016 RMK AO2

IFR

8°C / 8°C

[Daha fazla]
Rüzgar 350º 4kt
Görünürlük 8000m
Hava Mist
Bulutlar Vertical Visibility of 0ft.
Basınç
Değiştir -
Ham KTPF 231115Z AUTO 35004KT 5SM BR OVC005 08/08 A3016 RMK AO2

IFR

8°C / 8°C

[Daha fazla]
Rüzgar 350º 4kt
Görünürlük 6400m
Hava Mist
Bulutlar Vertical Visibility of 0ft.
Basınç
Değiştir -
Ham KTPF 231055Z AUTO 35004KT 4SM BR OVC005 08/08 A3015 RMK AO2

IFR

8°C / 8°C

[Daha fazla]
Rüzgar 340º 3kt
Görünürlük 4800m
Hava Mist
Bulutlar Vertical Visibility of 0ft.
Basınç
Değiştir -
Ham KTPF 231035Z AUTO 34003KT 3SM BR OVC005 08/08 A3015 RMK AO2

IFR

8°C / 8°C

[Daha fazla]
Rüzgar 340º 4kt
Görünürlük 6400m
Hava Mist
Bulutlar Vertical Visibility of 0ft.
Basınç
Değiştir -
Ham KTPF 231015Z AUTO 34004KT 4SM BR OVC005 08/08 A3015 RMK AO2

IFR

8°C / 8°C

[Daha fazla]
Rüzgar 360º 3kt
Görünürlük 6400m
Hava Mist
Bulutlar Vertical Visibility of 0ft.
Basınç
Değiştir -
Ham KTPF 230955Z AUTO 36003KT 4SM BR OVC005 08/08 A3016 RMK AO2

IFR

8°C / 8°C

[Daha fazla]
Rüzgar 330º 3kt
Görünürlük 6400m
Hava Mist
Bulutlar Vertical Visibility of 0ft.
Basınç
Değiştir -
Ham KTPF 230935Z AUTO 33003KT 4SM BR OVC005 08/08 A3015 RMK AO2

IFR

8°C / 8°C

[Daha fazla]
Rüzgar 10º 3kt
Görünürlük >10km
Hava -
Bulutlar Overcast 500ft
Basınç
Değiştir -
Ham KTPF 230915Z AUTO 01003KT 7SM OVC005 08/08 A3015 RMK AO2

IFR

8°C / 8°C

[Daha fazla]
Rüzgar 20º 4kt
Görünürlük >10km
Hava -
Bulutlar Overcast 500ft
Basınç
Değiştir -
Ham KTPF 230855Z AUTO 02004KT 7SM OVC005 08/08 A3016 RMK AO2

IFR

8°C / 8°C

[Daha fazla]
Rüzgar 20º 3kt
Görünürlük 8000m
Hava Mist
Bulutlar Vertical Visibility of 0ft.
Basınç
Değiştir -
Ham KTPF 230835Z AUTO 02003KT 5SM BR OVC007 08/08 A3016 RMK AO2

IFR

8°C / 8°C

[Daha fazla]
Rüzgar 30º 5kt
Görünürlük >10km
Hava -
Bulutlar Overcast 700ft
Basınç
Değiştir -
Ham KTPF 230815Z AUTO 03005KT 10SM OVC007 08/08 A3016 RMK AO2

IFR

8°C / 8°C

[Daha fazla]
Rüzgar 10º 3kt
Görünürlük >10km
Hava -
Bulutlar Overcast 700ft
Basınç
Değiştir -
Ham KTPF 230755Z AUTO 01003KT 10SM OVC007 08/08 A3017 RMK AO2

IFR

8°C / 8°C

[Daha fazla]
Rüzgar 340º 4kt
Görünürlük >10km
Hava -
Bulutlar Overcast 500ft
Basınç
Değiştir -
Ham KTPF 230735Z AUTO 34004KT 7SM OVC005 08/08 A3017 RMK AO2

IFR

8°C / 8°C

[Daha fazla]
Rüzgar 40º 4kt
Görünürlük >10km
Hava -
Bulutlar Overcast 500ft
Basınç
Değiştir -
Ham KTPF 230715Z AUTO 04004KT 10SM OVC005 08/08 A3017 RMK AO2

IFR

8°C / 8°C

[Daha fazla]
Rüzgar 20º 7kt
Görünürlük >10km
Hava -
Bulutlar Overcast 500ft
Basınç
Değiştir -
Ham KTPF 230655Z AUTO 02007KT 10SM OVC005 08/08 A3017 RMK AO2

IFR

8°C / 8°C

[Daha fazla]
Rüzgar 20º 3kt
Görünürlük >10km
Hava -
Bulutlar Overcast 500ft
Basınç
Değiştir -
Ham KTPF 230635Z AUTO 02003KT 7SM OVC005 08/08 A3018 RMK AO2

IFR

8°C / 8°C

[Daha fazla]
Rüzgar 40º 4kt
Görünürlük >10km
Hava -
Bulutlar Overcast 500ft
Basınç
Değiştir -
Ham KTPF 230615Z AUTO 04004KT 7SM OVC005 08/08 A3018 RMK AO2

IFR

8°C / 8°C

[Daha fazla]
Rüzgar 20º 6kt
Görünürlük >10km
Hava -
Bulutlar Overcast 500ft
Basınç
Değiştir -
Ham KTPF 230555Z AUTO 02006KT 7SM OVC005 08/08 A3019 RMK AO2

IFR

8°C / 8°C

[Daha fazla]
Rüzgar 50º 8kt
Görünürlük >10km
Hava -
Bulutlar Overcast 500ft
Basınç
Değiştir -
Ham KTPF 230535Z AUTO 05008KT 7SM OVC005 08/08 A3019 RMK AO2

Tampa için radar ve yağış nowcast

Çise
Hafif
Orta
Ağır
Çok ağır
Selamlamak

Konum işaretleyicisi Tampa üzerine yerleştirilir. Bu animasyon son saat içerisindeki yağış radarını ve 1h tahminini gösterir. Hafif yağmur veya kar yağışı radar için görünmez olabilir. Yağış şiddeti açık mavi ile koyu mor arasındaki renklerle kodlanmıştır.

Tampa için şu anki uydu görüntüleri, ABD

Konum işaretleyici Tampa üzerine yerleştirilir. [Daha fazla]

Gerçek zamanlı uydu görüntüsü gündüz süresince görülür ışığı gece süresince kızılötesi ışınım ile birleştirir. Gece kızılötesi ışınım sıcaklık farklarını algılayabildiğinden dolayı görüntü karanlık değildir. Ancak düşük bulutları ve sisi yer sıcaklığından ayırmak zordur ve bu nedenle gece boyunca neredeyse görünmez olabilirler. Avrupa için Meteosat uydu görüntüleri gerçek zamanlı olarak her 5 dakikada bir güncellenir. GOES-16/GOES-17 (Kuzey ve Güney Amerika) ve Himawari (Asya) görüntüleri her 10 dakikada bir güncellenir.